METAR Data
IDs: Format: Raw Decoded Include TAF

Data at: 0157 UTC 14 May 2021

KC65 140135Z AUTO 00000KT 10SM CLR 14/M05 A3031 RMK A01
KC65 140115Z AUTO 33004KT 10SM CLR 14/M05 A3031 RMK A01
KC65 140055Z AUTO 31004KT 10SM CLR 15/M04 A3030 RMK A01
KC65 140035Z AUTO 31003KT 10SM CLR 16/M04 A3030 RMK A01
KC65 140015Z AUTO 33004KT 10SM CLR 17/M05 A3030 RMK A01
KC65 132355Z AUTO 32005KT 10SM CLR 17/M06 A3030 RMK A01
KC65 132335Z AUTO 00000KT 10SM CLR 18/M06 A3030 RMK A01
KC65 132315Z AUTO 29006KT 10SM CLR 18/M05 A3030 RMK A01
KC65 132255Z AUTO 30004KT 10SM CLR 18/M06 A3030 RMK A01
KC65 132235Z AUTO 00000KT 10SM CLR 18/M06 A3031 RMK A01
KC65 132215Z AUTO 22005KT 10SM CLR 18/M07 A3031 RMK A01
KC65 132155Z AUTO VRB04KT 10SM CLR 19/M06 A3032 RMK A01
KC65 132135Z AUTO 31006KT 10SM CLR 18/M06 A3032 RMK A01
KC65 132115Z AUTO 08005KT 10SM CLR 18/M06 A3032 RMK A01
KC65 132055Z AUTO VRB06KT 10SM CLR 19/M05 A3033 RMK A01
KC65 132035Z AUTO 32007KT 10SM CLR 19/M05 A3033 RMK A01
KC65 132015Z AUTO 29008KT 10SM CLR 18/M06 A3034 RMK A01
KC65 131955Z AUTO 29006KT 10SM CLR 18/M07 A3035 RMK A01
KC65 131935Z AUTO VRB06KT 10SM CLR 18/M06 A3035 RMK A01
KC65 131915Z AUTO 26004KT 10SM CLR 18/M05 A3036 RMK A01
KC65 131855Z AUTO VRB03G10KT 10SM CLR 18/M05 A3037 RMK A01
KC65 131835Z AUTO 28008KT 230V300 10SM CLR 18/M06 A3037 RMK A01
KC65 131815Z AUTO VRB05G12KT 10SM CLR 18/M05 A3038 RMK A01
KC65 131755Z AUTO 27008KT 10SM CLR 18/M04 A3038 RMK A01
KC65 131735Z AUTO 00000KT 10SM CLR 17/M08 A3039 RMK A01
KC65 131715Z AUTO 29008KT 260V340 10SM CLR 17/M06 A3040 RMK A01
KC65 131655Z AUTO 00000G11KT 10SM CLR 17/M06 A3041 RMK A01
KC65 131635Z AUTO 27009KT 10SM CLR 17/M04 A3041 RMK A01
KC65 131615Z AUTO 31009KT 10SM CLR 16/M05 A3042 RMK A01
KC65 131555Z AUTO VRB04KT 10SM CLR 16/M01 A3043 RMK A01
KC65 131535Z AUTO VRB06KT 10SM CLR 15/M02 A3043 RMK A01
KC65 131515Z AUTO VRB04KT 10SM CLR 15/M03 A3043 RMK A01
KC65 131455Z AUTO 32006KT 10SM CLR 15/M02 A3043 RMK A01
KC65 131435Z AUTO 29007KT 10SM CLR 15/M02 A3043 RMK A01
KC65 131415Z AUTO 27004KT 10SM CLR 14/M02 A3043 RMK A01
KC65 131355Z AUTO VRB03KT 10SM CLR 13/M03 A3044 RMK A01
KC65 131335Z AUTO 00000KT 10SM CLR 13/M01 A3044 RMK A01
KC65 131315Z AUTO 00000KT 10SM CLR 11/M00 A3044 RMK A01
KC65 131255Z AUTO 00000KT 10SM CLR 10/01 A3044 RMK A01
KC65 131235Z AUTO 00000KT 10SM CLR 08/02 A3044 RMK A01
KC65 131215Z AUTO 00000KT 10SM CLR 06/02 A3043 RMK A01
KC65 131155Z AUTO 00000KT 10SM CLR 04/02 A3043 RMK A01
KC65 131135Z AUTO 00000KT 10SM CLR 03/01 A3043 RMK A01
KC65 131115Z AUTO 00000KT 10SM CLR 02/00 A3042 RMK A01
KC65 131055Z AUTO 00000KT 10SM CLR 01/M01 A3041 RMK A01
KC65 131035Z AUTO 00000KT 10SM CLR 01/M00 A3041 RMK A01
KC65 131015Z AUTO 00000KT 10SM CLR 01/M01 A3040 RMK A01
KC65 130955Z AUTO 00000KT 10SM CLR 01/M00 A3040 RMK A01
KC65 130935Z AUTO 00000KT 10SM CLR 01/M00 A3040 RMK A01
KC65 130915Z AUTO 00000KT 10SM CLR 01/M00 A3040 RMK A01
KC65 130855Z AUTO 00000KT 10SM CLR 02/M00 A3040 RMK A01
KC65 130835Z AUTO 00000KT 10SM CLR 02/00 A3040 RMK A01
KC65 130815Z AUTO 00000KT 10SM CLR 02/M00 A3039 RMK A01
KC65 130755Z AUTO 00000KT 7SM CLR 02/01 A3039 RMK A01
KC65 130735Z AUTO 00000KT 10SM CLR 02/01 A3039 RMK A01
KC65 130715Z AUTO 00000KT 10SM CLR 03/00 A3039 RMK A01
KC65 130655Z AUTO 00000KT 10SM CLR 03/00 A3040 RMK A01
KC65 130635Z AUTO 00000KT 10SM FEW040 03/M00 A3040 RMK A01
KC65 130615Z AUTO 00000KT 10SM FEW042 03/M00 A3040 RMK A01
KC65 130555Z AUTO 00000KT 10SM CLR 04/01 A3040 RMK A01
KC65 130535Z AUTO 00000KT 10SM FEW041 04/00 A3040 RMK A01
KC65 130515Z AUTO 00000KT 10SM FEW043 04/00 A3040 RMK A01
KC65 130455Z AUTO 00000KT 10SM FEW045 04/M00 A3040 RMK A01
KC65 130435Z AUTO 00000KT 10SM FEW045 04/01 A3041 RMK A01
KC65 130415Z AUTO 00000KT 10SM CLR 05/01 A3040 RMK A01
KC65 130355Z AUTO 00000KT 10SM FEW039 06/M00 A3041 RMK A01
KC65 130335Z AUTO 00000KT 10SM CLR 06/00 A3040 RMK A01
KC65 130315Z AUTO 32003KT 10SM CLR 07/01 A3041 RMK A01
KC65 130255Z AUTO 00000KT 10SM FEW043 09/M01 A3040 RMK A01
KC65 130235Z AUTO 00000KT 10SM FEW044 09/M01 A3040 RMK A01
KC65 130215Z AUTO 32003KT 10SM CLR 09/M01 A3040 RMK A01
KC65 130155Z AUTO 00000KT 10SM CLR 09/M01 A3039 RMK A01
KC65 130135Z AUTO 33003KT 10SM CLR 10/M01 A3039 RMK A01
KC65 130115Z AUTO 33005KT 10SM CLR 11/M01 A3039 RMK A01
KC65 130055Z AUTO 34005KT 10SM CLR 11/M01 A3038 RMK A01
KC65 130035Z AUTO 34004KT 10SM CLR 12/M01 A3038 RMK A01
KC65 130015Z AUTO VRB05KT 10SM CLR 13/M01 A3038 RMK A01
KC65 122355Z AUTO 34006KT 10SM CLR 13/M01 A3038 RMK A01
KC65 122335Z AUTO 34007KT 10SM CLR 14/M01 A3038 RMK A01
KC65 122315Z AUTO 33010KT 10SM CLR 14/M01 A3038 RMK A01
KC65 122255Z AUTO 34008KT 290V010 10SM CLR 15/M00 A3038 RMK A01
KC65 122235Z AUTO 01008KT 10SM SCT070 15/M01 A3038 RMK A01
KC65 122215Z AUTO 34009KT 300V020 10SM BKN070 16/M00 A3038 RMK A01
KC65 122155Z AUTO 31005KT 10SM FEW070 16/M01 A3038 RMK A01
KC65 122135Z AUTO 05006G12KT 10SM FEW070 16/M02 A3038 RMK A01
KC65 122115Z AUTO 32007KT 270V010 10SM CLR 16/M02 A3039 RMK A01
KC65 122055Z AUTO 05009KT 10SM FEW070 16/M02 A3039 RMK A01
KC65 122035Z AUTO 31004KT 10SM FEW070 16/M02 A3040 RMK A01
KC65 122015Z AUTO 02009KT 350V060 10SM FEW070 16/M02 A3040 RMK A01
KC65 121955Z AUTO VRB05G11KT 10SM FEW065 15/M01 A3041 RMK A01
KC65 121935Z AUTO 03004G10KT 10SM FEW065 15/M01 A3041 RMK A01
KC65 121915Z AUTO 36007G12KT 10SM CLR 15/M01 A3042 RMK A01
KC65 121855Z AUTO 02007G12KT 10SM CLR 15/M00 A3042 RMK A01
KC65 121835Z AUTO VRB04G10KT 10SM CLR 14/M01 A3042 RMK A01
KC65 121815Z AUTO VRB04KT 10SM CLR 14/M01 A3043 RMK A01
KC65 121755Z AUTO VRB06G11KT 10SM CLR 14/M01 A3043 RMK A01
KC65 121735Z AUTO 06007KT 10SM CLR 13/M02 A3044 RMK A01
KC65 121715Z AUTO 01005G12KT 10SM CLR 14/M01 A3044 RMK A01
KC65 121655Z AUTO 05007KT 10SM CLR 13/M01 A3045 RMK A01
KC65 121635Z AUTO 07006G12KT 10SM CLR 13/M01 A3046 RMK A01
KC65 121615Z AUTO 04005G10KT 10SM CLR 12/M01 A3046 RMK A01
KC65 121555Z AUTO VRB06G11KT 10SM CLR 12/M01 A3046 RMK A01
KC65 121535Z AUTO 04007G13KT 10SM CLR 12/M02 A3046 RMK A01
KC65 121515Z AUTO 02008G13KT 10SM CLR 11/M02 A3046 RMK A01
KC65 121455Z AUTO 36007KT 330V030 10SM CLR 11/M01 A3046 RMK A01
KC65 121435Z AUTO 04008KT 10SM CLR 11/M01 A3046 RMK A01
KC65 121415Z AUTO VRB06G11KT 10SM CLR 10/M00 A3046 RMK A01